Time;durP1;ratioP1;P1;durP2;ratioP2;P2;SDS_P1;SDS_P2;PMS_P1;PMS_P2;Temp;Humidity;BMP_temperature;BMP_pressure;BME280_temperature;BME280_humidity;BME280_pressure;Samples;Min_cycle;Max_cycle;Signal;HPM_P1;HPM_P2
2021/07/16 00:00:43;;;;;;;31.17;7.65;;;20.20;99.90;;;;;;1896808;76;21046;-81
2021/07/16 00:03:10;;;;;;;36.48;8.00;;;20.30;99.90;;;;;;1888468;76;21169;-80
2021/07/16 00:05:38;;;;;;;37.80;7.30;;;20.20;99.90;;;;;;1898743;76;21090;-80
2021/07/16 00:08:06;;;;;;;34.73;7.28;;;20.20;99.90;;;;;;1876593;76;21063;-80
2021/07/16 00:10:33;;;;;;;33.00;7.25;;;20.20;99.90;;;;;;1895390;76;21655;-79
2021/07/16 00:13:01;;;;;;;32.83;7.22;;;20.10;99.90;;;;;;1897337;75;21065;-80
2021/07/16 00:15:30;;;;;;;34.67;7.42;;;20.10;99.90;;;;;;1900857;75;21140;-79
2021/07/16 00:17:57;;;;;;;33.78;8.13;;;20.10;99.90;;;;;;1893934;76;21094;-78
2021/07/16 00:20:25;;;;;;;33.90;7.78;;;20.10;99.90;;;;;;1896906;76;21171;-77
2021/07/16 00:22:52;;;;;;;30.17;7.12;;;20.10;99.90;;;;;;1885406;75;21211;-82
2021/07/16 00:25:20;;;;;;;33.65;7.20;;;20.10;99.90;;;;;;1876619;76;21098;-79
2021/07/16 00:27:48;;;;;;;34.70;7.72;;;20.10;99.90;;;;;;1896874;75;21486;-79
2021/07/16 00:30:15;;;;;;;27.52;6.83;;;20.10;99.90;;;;;;1878163;75;21097;-79
2021/07/16 00:32:43;;;;;;;32.95;7.42;;;20.10;99.90;;;;;;1845451;77;21667;-78
2021/07/16 00:35:11;;;;;;;36.17;7.72;;;20.10;99.90;;;;;;1841793;77;21588;-77
2021/07/16 00:37:39;;;;;;;25.82;6.62;;;20.00;99.90;;;;;;1840235;78;21674;-78
2021/07/16 00:40:09;;;;;;;29.55;6.67;;;20.00;99.90;;;;;;1897120;75;21151;-79
2021/07/16 00:42:37;;;;;;;30.10;6.95;;;20.00;99.90;;;;;;1890814;75;21129;-80
2021/07/16 00:45:07;;;;;;;30.92;7.00;;;20.00;99.90;;;;;;1883295;76;21071;-78
2021/07/16 00:47:35;;;;;;;28.62;6.80;;;20.00;99.90;;;;;;1873677;76;21103;-78
2021/07/16 00:50:03;;;;;;;26.30;6.20;;;20.00;99.90;;;;;;1882304;76;21188;-80
2021/07/16 00:52:31;;;;;;;33.35;7.65;;;19.90;99.90;;;;;;1889357;75;21134;-80
2021/07/16 00:54:59;;;;;;;33.30;6.90;;;19.90;99.90;;;;;;1896120;76;21118;-82
2021/07/16 00:57:27;;;;;;;31.27;7.17;;;19.90;99.90;;;;;;1889133;76;21101;-79
2021/07/16 00:59:54;;;;;;;31.87;6.42;;;19.90;99.90;;;;;;1898460;76;21055;-80
2021/07/16 01:02:22;;;;;;;26.48;6.28;;;19.90;99.90;;;;;;1886338;76;21020;-80
2021/07/16 01:04:50;;;;;;;31.33;6.70;;;20.00;99.90;;;;;;1881351;76;21055;-80
2021/07/16 01:07:17;;;;;;;27.93;6.60;;;19.90;99.90;;;;;;1892464;75;21106;-79
2021/07/16 01:09:49;;;;;;;28.57;7.10;;;20.00;99.90;;;;;;1896096;75;21012;-79
2021/07/16 01:12:14;;;;;;;29.12;7.55;;;19.90;99.90;;;;;;1883353;76;21192;-80
2021/07/16 01:14:41;;;;;;;29.50;6.90;;;20.00;99.90;;;;;;1883003;76;21098;-79
2021/07/16 01:17:09;;;;;;;26.27;6.08;;;19.90;99.90;;;;;;1887374;76;22101;-79
2021/07/16 01:19:42;;;;;;;24.63;6.08;;;19.90;99.90;;;;;;1882059;75;21090;-80
2021/07/16 01:22:11;;;;;;;26.85;7.00;;;19.90;99.90;;;;;;1885821;76;21095;-79
2021/07/16 01:24:40;;;;;;;29.98;6.75;;;19.80;99.90;;;;;;1884296;75;21195;-79
2021/07/16 01:27:07;;;;;;;32.60;6.65;;;19.90;99.90;;;;;;1895254;76;21619;-80
2021/07/16 01:29:36;;;;;;;27.25;6.72;;;20.00;99.90;;;;;;1896021;76;21086;-79
2021/07/16 01:32:04;;;;;;;30.85;6.90;;;19.80;99.90;;;;;;1885203;76;21770;-78
2021/07/16 01:34:32;;;;;;;34.33;6.60;;;19.80;99.90;;;;;;1884992;75;21099;-80
2021/07/16 01:37:00;;;;;;;30.85;6.50;;;19.80;99.90;;;;;;1884580;75;21079;-80
2021/07/16 01:39:28;;;;;;;31.70;6.65;;;19.90;99.90;;;;;;1891764;75;21090;-79
2021/07/16 01:41:55;;;;;;;36.95;7.42;;;19.80;99.90;;;;;;1870781;76;21055;-76
2021/07/16 01:44:23;;;;;;;32.78;6.83;;;19.80;99.90;;;;;;1878828;75;21086;-77
2021/07/16 01:46:50;;;;;;;28.38;7.62;;;19.80;99.90;;;;;;1873888;75;21105;-77
2021/07/16 01:49:18;;;;;;;32.00;6.75;;;19.70;99.90;;;;;;1880130;76;21067;-77
2021/07/16 01:51:45;;;;;;;35.68;7.42;;;19.70;99.90;;;;;;1887640;75;21036;-77
2021/07/16 01:54:13;;;;;;;30.97;6.25;;;19.70;99.90;;;;;;1892215;75;21191;-76
2021/07/16 01:56:40;;;;;;;33.63;7.20;;;19.70;99.90;;;;;;1877805;76;21098;-76
2021/07/16 01:59:08;;;;;;;40.03;7.55;;;19.70;99.90;;;;;;1895237;76;21215;-79
2021/07/16 02:01:35;;;;;;;36.08;6.97;;;19.70;99.90;;;;;;1887358;76;22212;-79
2021/07/16 02:04:03;;;;;;;30.10;6.97;;;19.70;99.90;;;;;;1881421;76;21112;-78
2021/07/16 02:06:31;;;;;;;28.70;7.85;;;19.70;99.90;;;;;;1885260;75;21094;-80
2021/07/16 02:08:59;;;;;;;36.30;7.47;;;19.70;99.90;;;;;;1895126;75;21102;-79
2021/07/16 02:11:28;;;;;;;39.73;7.45;;;19.60;99.90;;;;;;1885536;75;21074;-77
2021/07/16 02:13:56;;;;;;;30.60;6.55;;;19.60;99.90;;;;;;1890682;75;21481;-79
2021/07/16 02:16:23;;;;;;;31.50;7.70;;;19.60;99.90;;;;;;1873401;75;21089;-78
2021/07/16 02:18:52;;;;;;;38.85;7.20;;;19.60;99.90;;;;;;1869145;75;21505;-77
2021/07/16 02:21:21;;;;;;;32.33;7.30;;;19.60;99.90;;;;;;1887510;75;21207;-78
2021/07/16 02:23:49;;;;;;;34.58;6.92;;;19.60;99.90;;;;;;1886552;75;21102;-79
2021/07/16 02:26:17;;;;;;;30.82;7.62;;;19.50;99.90;;;;;;1890763;75;21325;-80
2021/07/16 02:28:44;;;;;;;34.23;7.08;;;19.50;99.90;;;;;;1895427;75;21082;-77
2021/07/16 02:31:14;;;;;;;31.90;7.47;;;19.40;99.90;;;;;;1887556;76;21107;-79
2021/07/16 02:33:41;;;;;;;28.67;6.95;;;19.40;99.90;;;;;;1890713;76;21063;-80
2021/07/16 02:36:10;;;;;;;30.25;6.80;;;19.40;99.90;;;;;;1896510;76;21191;-78
2021/07/16 02:38:39;;;;;;;30.43;7.10;;;19.40;99.90;;;;;;1880749;76;21074;-79
2021/07/16 02:41:06;;;;;;;34.23;7.00;;;19.40;99.90;;;;;;1878874;76;21086;-79
2021/07/16 02:43:36;;;;;;;30.70;6.83;;;19.40;99.90;;;;;;1890153;75;21094;-79
2021/07/16 02:46:03;;;;;;;28.67;6.20;;;19.40;99.90;;;;;;1880861;76;21067;-79
2021/07/16 02:48:31;;;;;;;36.20;7.22;;;19.40;99.90;;;;;;1880932;76;21211;-78
2021/07/16 02:50:59;;;;;;;39.40;7.85;;;19.40;99.90;;;;;;1876148;76;21189;-81
2021/07/16 02:53:26;;;;;;;31.27;6.58;;;19.50;99.90;;;;;;1885680;76;21118;-80
2021/07/16 02:55:54;;;;;;;32.05;7.10;;;19.40;99.90;;;;;;1888737;76;21117;-81
2021/07/16 02:58:22;;;;;;;32.98;7.40;;;19.40;99.90;;;;;;1881105;76;21023;-80
2021/07/16 03:00:50;;;;;;;32.40;6.78;;;19.40;99.90;;;;;;1881070;75;21489;-82
2021/07/16 03:03:17;;;;;;;34.15;7.78;;;19.30;99.90;;;;;;1883306;74;21118;-80
2021/07/16 03:05:45;;;;;;;30.40;6.62;;;19.40;99.90;;;;;;1884507;76;21494;-80
2021/07/16 03:08:13;;;;;;;30.88;7.03;;;19.40;99.90;;;;;;1881307;76;21130;-79
2021/07/16 03:10:44;;;;;;;30.25;5.62;;;19.40;99.90;;;;;;1920257;74;21478;-79
2021/07/16 03:13:14;;;;;;;28.98;6.37;;;19.20;99.90;;;;;;1887065;75;21639;-79
2021/07/16 03:15:42;;;;;;;35.80;6.75;;;19.30;99.90;;;;;;1879350;76;21179;-81
2021/07/16 03:18:10;;;;;;;37.90;7.35;;;19.30;99.90;;;;;;1870050;76;21235;-78
2021/07/16 03:20:41;;;;;;;32.50;7.10;;;19.30;99.90;;;;;;1838492;76;21213;-79
2021/07/16 03:23:10;;;;;;;36.63;6.22;;;19.30;99.90;;;;;;1885294;76;21052;-78
2021/07/16 03:25:38;;;;;;;36.10;7.50;;;19.30;99.90;;;;;;1880440;76;21118;-78
2021/07/16 03:28:07;;;;;;;28.07;6.62;;;19.30;99.90;;;;;;1883494;76;21031;-78
2021/07/16 03:30:34;;;;;;;40.60;7.12;;;19.30;99.90;;;;;;1887826;75;21110;-79
2021/07/16 03:33:02;;;;;;;32.25;7.12;;;19.30;99.90;;;;;;1880631;76;21157;-78
2021/07/16 03:35:30;;;;;;;38.33;7.47;;;19.20;99.90;;;;;;1880193;76;21477;-79
2021/07/16 03:37:58;;;;;;;33.18;6.72;;;19.20;99.90;;;;;;1880990;76;21184;-79
2021/07/16 03:40:28;;;;;;;29.70;7.10;;;19.20;99.90;;;;;;1894911;75;21098;-80
2021/07/16 03:42:57;;;;;;;31.17;6.62;;;19.20;99.90;;;;;;1877597;76;21184;-79
2021/07/16 03:45:25;;;;;;;29.40;7.00;;;19.20;99.90;;;;;;1883153;76;21106;-79
2021/07/16 03:47:52;;;;;;;31.75;6.03;;;19.20;99.90;;;;;;1893977;75;21155;-80
2021/07/16 03:50:22;;;;;;;37.42;7.47;;;19.20;99.90;;;;;;1886598;75;21063;-80
2021/07/16 03:52:51;;;;;;;36.93;7.37;;;19.20;99.90;;;;;;1886665;76;21672;-81
2021/07/16 03:55:18;;;;;;;39.10;6.70;;;19.30;99.90;;;;;;1888223;76;21102;-80
2021/07/16 03:57:48;;;;;;;28.77;7.12;;;19.30;99.90;;;;;;1878640;76;21049;-79
2021/07/16 04:00:21;;;;;;;33.25;7.10;;;19.20;99.90;;;;;;1889877;76;21059;-80
2021/07/16 04:02:49;;;;;;;30.77;7.15;;;19.20;99.90;;;;;;1893966;75;21204;-79
2021/07/16 04:05:16;;;;;;;39.73;8.30;;;19.30;99.90;;;;;;1895098;76;21031;-80
2021/07/16 04:07:47;;;;;;;43.75;7.20;;;19.30;99.90;;;;;;1890536;76;21031;-79
2021/07/16 04:10:18;;;;;;;36.60;7.40;;;19.20;99.90;;;;;;1886378;76;21194;-80
2021/07/16 04:12:54;;;;;;;43.58;7.92;;;19.30;99.90;;;;;;1882224;75;21095;-79
2021/07/16 04:15:25;;;;;;;33.15;7.47;;;19.30;99.90;;;;;;1897722;75;21065;-80
2021/07/16 04:17:51;;;;;;;37.17;7.28;;;19.30;99.90;;;;;;1934490;72;21179;-73
2021/07/16 04:20:19;;;;;;;42.98;8.75;;;19.30;99.90;;;;;;1913013;73;21169;-75
2021/07/16 04:22:47;;;;;;;43.05;8.30;;;19.30;99.90;;;;;;1891813;74;21069;-75
2021/07/16 04:25:19;;;;;;;32.13;7.10;;;19.30;99.90;;;;;;1891822;74;21054;-74
2021/07/16 04:27:48;;;;;;;40.67;7.55;;;19.40;99.90;;;;;;1916297;74;21124;-73
2021/07/16 04:30:17;;;;;;;37.90;7.47;;;19.40;99.90;;;;;;1949792;72;21093;-74
2021/07/16 04:32:45;;;;;;;44.15;7.53;;;19.50;99.90;;;;;;1935282;72;21030;-74
2021/07/16 04:35:17;;;;;;;37.13;7.05;;;19.40;99.90;;;;;;1944735;72;21033;-77
2021/07/16 04:37:46;;;;;;;37.03;7.37;;;19.40;99.90;;;;;;1931645;72;21057;-75
2021/07/16 04:40:16;;;;;;;34.95;7.28;;;19.40;99.90;;;;;;1948706;72;21167;-75
2021/07/16 04:42:45;;;;;;;42.60;8.35;;;19.40;99.90;;;;;;1943682;72;21199;-74
2021/07/16 04:45:13;;;;;;;33.95;7.97;;;19.40;99.90;;;;;;1925047;72;21446;-77
2021/07/16 04:47:41;;;;;;;31.73;8.10;;;19.40;99.90;;;;;;1931574;73;21683;-77
2021/07/16 04:50:10;;;;;;;31.10;6.60;;;19.40;99.90;;;;;;1916509;72;21493;-76
2021/07/16 04:52:43;;;;;;;38.42;8.20;;;19.30;99.90;;;;;;1923482;72;21061;-76
2021/07/16 04:55:11;;;;;;;31.75;6.95;;;19.40;99.90;;;;;;1920650;72;21085;-76
2021/07/16 04:57:38;;;;;;;33.58;7.08;;;19.40;99.90;;;;;;1937181;72;21186;-76
2021/07/16 05:00:08;;;;;;;35.40;6.95;;;19.40;99.90;;;;;;1949204;72;21065;-76
2021/07/16 05:02:36;;;;;;;35.98;7.55;;;19.40;99.90;;;;;;1941624;72;21575;-77
2021/07/16 05:05:04;;;;;;;46.25;8.45;;;19.40;99.90;;;;;;1897947;73;21159;-76
2021/07/16 05:07:31;;;;;;;31.48;7.45;;;19.50;99.90;;;;;;1960891;73;21544;-76
2021/07/16 05:09:59;;;;;;;38.45;7.75;;;19.50;99.90;;;;;;1908982;75;21066;-76
2021/07/16 05:12:27;;;;;;;34.78;7.03;;;19.50;99.90;;;;;;1909680;73;21081;-77
2021/07/16 05:14:54;;;;;;;33.55;7.40;;;19.50;99.90;;;;;;1861133;75;21153;-76
2021/07/16 05:17:22;;;;;;;36.73;7.58;;;19.50;99.90;;;;;;1871404;76;21192;-77
2021/07/16 05:19:49;;;;;;;41.20;8.93;;;19.50;99.90;;;;;;1884895;75;21097;-77
2021/07/16 05:22:17;;;;;;;32.98;6.97;;;19.50;99.90;;;;;;1888468;75;21500;-76
2021/07/16 05:24:46;;;;;;;37.75;7.65;;;19.50;99.90;;;;;;1899658;75;21077;-76
2021/07/16 05:27:13;;;;;;;44.77;7.78;;;19.40;99.90;;;;;;1899938;74;21132;-76
2021/07/16 05:29:41;;;;;;;41.85;7.42;;;19.50;99.90;;;;;;1915119;75;21540;-76
2021/07/16 05:32:08;;;;;;;39.42;7.87;;;19.40;99.90;;;;;;1915746;74;21086;-75
2021/07/16 05:34:36;;;;;;;36.40;7.55;;;19.60;99.90;;;;;;1897312;75;21082;-77
2021/07/16 05:37:04;;;;;;;41.73;8.05;;;19.50;99.90;;;;;;1911064;75;21078;-76
2021/07/16 05:39:31;;;;;;;41.40;8.13;;;19.60;99.90;;;;;;1916637;75;21046;-75
2021/07/16 05:42:03;;;;;;;38.00;7.10;;;19.60;99.90;;;;;;1914636;74;21110;-75
2021/07/16 05:44:28;;;;;;;42.55;7.87;;;19.70;99.90;;;;;;1904578;74;21137;-78
2021/07/16 05:46:55;;;;;;;40.08;8.10;;;19.60;99.90;;;;;;1900591;75;21769;-75
2021/07/16 05:49:23;;;;;;;42.38;7.50;;;19.60;99.90;;;;;;1915674;75;21087;-75
2021/07/16 05:51:50;;;;;;;45.78;7.85;;;19.70;99.90;;;;;;1903522;74;21098;-77
2021/07/16 05:54:18;;;;;;;37.20;7.65;;;19.60;99.90;;;;;;1952743;73;21476;-74
2021/07/16 05:56:46;;;;;;;38.67;7.75;;;19.60;99.90;;;;;;1907565;73;21167;-77
2021/07/16 05:59:13;;;;;;;37.93;7.70;;;19.60;99.90;;;;;;1897830;73;21117;-77
2021/07/16 06:01:41;;;;;;;44.45;7.75;;;19.60;99.90;;;;;;1956032;72;21159;-76
2021/07/16 06:04:11;;;;;;;53.02;8.70;;;19.70;99.90;;;;;;1909103;73;21117;-76
2021/07/16 06:06:39;;;;;;;36.25;7.75;;;19.70;99.90;;;;;;1937668;72;21626;-77
2021/07/16 06:09:07;;;;;;;34.75;7.35;;;19.60;99.90;;;;;;1901204;74;21150;-76
2021/07/16 06:11:35;;;;;;;44.40;8.40;;;19.70;99.90;;;;;;1912245;73;21082;-76
2021/07/16 06:14:03;;;;;;;39.58;7.35;;;19.70;99.90;;;;;;1944603;72;21109;-78
2021/07/16 06:16:31;;;;;;;38.90;8.03;;;19.80;99.90;;;;;;1892178;73;21080;-77
2021/07/16 06:18:58;;;;;;;41.50;7.92;;;19.80;99.90;;;;;;1902644;73;21086;-77
2021/07/16 06:21:26;;;;;;;37.50;6.78;;;19.90;99.90;;;;;;1900439;73;21089;-79
2021/07/16 06:23:54;;;;;;;44.90;8.33;;;20.00;99.90;;;;;;1940463;72;21050;-79
2021/07/16 06:26:21;;;;;;;39.20;7.72;;;20.00;99.90;;;;;;1891518;74;21085;-79
2021/07/16 06:28:49;;;;;;;36.08;7.12;;;20.10;99.90;;;;;;1889074;75;21182;-78
2021/07/16 06:31:17;;;;;;;36.28;8.03;;;20.10;99.90;;;;;;1887828;73;21176;-76
2021/07/16 06:33:44;;;;;;;40.05;8.18;;;20.20;99.90;;;;;;1949160;72;21070;-75
2021/07/16 06:36:11;;;;;;;39.53;7.78;;;20.20;99.90;;;;;;1942981;73;21069;-76
2021/07/16 06:38:39;;;;;;;43.83;8.58;;;20.10;99.90;;;;;;1932720;73;21129;-77
2021/07/16 06:41:08;;;;;;;47.03;7.72;;;20.10;99.90;;;;;;1946266;72;21116;-79
2021/07/16 06:43:36;;;;;;;46.90;8.98;;;20.10;99.90;;;;;;1951097;72;21064;-78
2021/07/16 06:46:03;;;;;;;49.05;8.00;;;20.10;99.90;;;;;;1950960;72;21129;-78
2021/07/16 06:48:31;;;;;;;41.05;8.38;;;20.10;99.90;;;;;;1943054;72;21268;-77
2021/07/16 06:50:59;;;;;;;51.42;7.85;;;20.10;99.90;;;;;;1946723;72;21079;-78
2021/07/16 06:53:26;;;;;;;36.00;6.87;;;20.10;99.90;;;;;;1943157;73;21069;-78
2021/07/16 06:55:54;;;;;;;41.37;7.58;;;20.10;99.90;;;;;;1929209;73;21167;-80
2021/07/16 06:58:21;;;;;;;41.30;8.23;;;20.10;99.90;;;;;;1946774;72;21563;-81
2021/07/16 07:00:50;;;;;;;42.73;7.60;;;20.20;99.90;;;;;;1948401;72;21145;-77
2021/07/16 07:03:18;;;;;;;37.53;7.53;;;20.10;99.90;;;;;;1942516;73;21196;-78
2021/07/16 07:05:45;;;;;;;34.48;6.47;;;20.20;99.90;;;;;;1943536;72;21586;-78
2021/07/16 07:08:13;;;;;;;42.88;8.48;;;20.20;99.90;;;;;;1946653;72;21528;-78
2021/07/16 07:10:40;;;;;;;38.28;7.62;;;20.20;99.90;;;;;;1940650;73;21198;-78
2021/07/16 07:13:09;;;;;;;40.12;7.40;;;20.20;99.90;;;;;;1926431;72;21094;-78
2021/07/16 07:15:37;;;;;;;34.95;7.47;;;20.30;99.90;;;;;;1874891;76;21627;-79
2021/07/16 07:18:06;;;;;;;41.50;6.83;;;20.30;99.90;;;;;;1945844;72;21175;-81
2021/07/16 07:20:36;;;;;;;37.10;6.72;;;20.40;99.90;;;;;;1869108;75;21065;-80
2021/07/16 07:23:05;;;;;;;40.50;7.10;;;20.30;99.90;;;;;;1893832;74;21443;-81
2021/07/16 07:25:32;;;;;;;37.40;7.20;;;20.30;99.90;;;;;;1931109;73;21568;-81
2021/07/16 07:28:00;;;;;;;36.60;7.00;;;20.40;99.90;;;;;;1942187;73;21532;-81
2021/07/16 07:30:27;;;;;;;34.78;7.20;;;20.30;99.90;;;;;;1857257;76;21085;-81
2021/07/16 07:32:55;;;;;;;37.88;7.05;;;20.40;99.90;;;;;;1949461;73;21042;-82
2021/07/16 07:35:23;;;;;;;43.65;7.92;;;20.40;99.90;;;;;;1893624;74;21072;-79
2021/07/16 07:37:51;;;;;;;34.90;6.85;;;20.40;99.90;;;;;;1886572;76;21135;-81
2021/07/16 07:40:19;;;;;;;38.17;7.80;;;20.40;99.90;;;;;;1889733;75;21074;-79
2021/07/16 07:42:47;;;;;;;29.50;6.97;;;20.40;99.90;;;;;;1900265;73;21191;-80
2021/07/16 07:45:15;;;;;;;34.65;7.45;;;20.30;99.90;;;;;;1899534;74;21192;-78
2021/07/16 07:47:44;;;;;;;36.85;7.42;;;20.30;99.90;;;;;;1899365;74;21105;-83
2021/07/16 07:50:16;;;;;;;40.52;7.70;;;20.30;99.90;;;;;;1897138;75;21527;-79
2021/07/16 07:52:45;;;;;;;41.28;7.80;;;20.20;99.90;;;;;;1898732;74;21151;-77
2021/07/16 07:55:13;;;;;;;41.63;7.75;;;20.20;99.90;;;;;;1873219;75;21225;-78
2021/07/16 07:57:41;;;;;;;38.80;7.40;;;20.30;99.90;;;;;;1937146;72;21183;-74
2021/07/16 08:00:11;;;;;;;38.38;7.12;;;20.40;99.90;;;;;;1863987;75;21120;-75
2021/07/16 08:02:40;;;;;;;33.92;6.95;;;20.40;99.90;;;;;;1899329;73;21030;-78
2021/07/16 08:05:08;;;;;;;36.23;6.85;;;20.50;99.90;;;;;;1948096;72;21014;-78
2021/07/16 08:07:36;;;;;;;36.23;7.72;;;20.60;99.90;;;;;;1951075;72;21143;-77
2021/07/16 08:10:09;;;;;;;32.55;6.92;;;20.60;99.90;;;;;;1948631;72;21068;-77
2021/07/16 08:12:37;;;;;;;35.35;7.35;;;20.70;99.90;;;;;;1856573;76;21119;-77
2021/07/16 08:15:06;;;;;;;35.17;7.05;;;20.70;99.90;;;;;;1953961;72;21092;-77
2021/07/16 08:17:34;;;;;;;45.10;8.35;;;20.70;99.90;;;;;;1890967;74;21050;-78
2021/07/16 08:20:03;;;;;;;38.95;7.10;;;20.70;99.90;;;;;;1874265;76;21053;-77
2021/07/16 08:22:31;;;;;;;56.85;8.83;;;20.80;99.90;;;;;;1874083;76;21605;-77
2021/07/16 08:24:58;;;;;;;47.08;8.38;;;20.80;99.90;;;;;;1857101;76;21097;-76
2021/07/16 08:27:26;;;;;;;43.90;8.33;;;20.90;99.90;;;;;;1873957;75;21146;-77
2021/07/16 08:30:13;;;;;;;44.53;7.78;;;21.00;99.90;;;;;;1953575;73;21328;-77
2021/07/16 08:32:43;;;;;;;39.95;7.83;;;21.10;99.90;;;;;;1886346;74;21128;-76
2021/07/16 08:35:13;;;;;;;38.17;7.47;;;21.20;99.90;;;;;;1877229;74;21077;-76
2021/07/16 08:37:41;;;;;;;40.10;7.60;;;21.20;99.90;;;;;;1857612;76;21658;-76
2021/07/16 08:40:10;;;;;;;43.25;7.95;;;21.40;99.90;;;;;;1844030;76;21137;-76
2021/07/16 08:42:37;;;;;;;44.40;7.58;;;21.30;99.90;;;;;;1926059;73;21190;-76
2021/07/16 08:45:07;;;;;;;39.70;7.40;;;21.40;99.90;;;;;;1929005;73;21093;-75
2021/07/16 08:47:35;;;;;;;48.48;8.28;;;21.50;99.90;;;;;;1863802;76;21113;-75
2021/07/16 08:50:05;;;;;;;40.15;7.35;;;21.50;99.90;;;;;;1859402;76;21155;-74
2021/07/16 08:52:33;;;;;;;45.55;8.28;;;21.40;99.90;;;;;;1854372;76;21616;-78
2021/07/16 08:55:02;;;;;;;44.08;7.97;;;21.50;99.90;;;;;;1936303;73;20991;-78
2021/07/16 08:57:31;;;;;;;41.10;8.25;;;21.60;99.90;;;;;;1929941;73;21207;-77
2021/07/16 08:59:59;;;;;;;38.30;7.25;;;21.70;99.90;;;;;;1913186;73;21074;-77
2021/07/16 09:02:29;;;;;;;35.38;7.67;;;21.60;99.90;;;;;;1929431;73;21657;-76
2021/07/16 09:05:10;;;;;;;40.15;7.05;;;21.60;99.90;;;;;;1926998;73;21143;-76
2021/07/16 09:07:49;;;;;;;;;;;21.50;99.90;;;;;;1927346;73;21066;-78
2021/07/16 09:10:13;;;;;;;45.05;8.60;;;21.50;99.90;;;;;;1923821;73;20404;-75
2021/07/16 09:12:41;;;;;;;43.55;8.30;;;21.60;99.90;;;;;;1930194;73;21041;-76
2021/07/16 09:15:17;;;;;;;36.05;7.30;;;21.60;99.90;;;;;;1936103;73;21029;-77
2021/07/16 09:17:46;;;;;;;47.15;8.63;;;21.70;99.90;;;;;;1856244;76;21164;-74
2021/07/16 09:20:27;;;;;;;44.33;8.98;;;21.70;99.90;;;;;;1925696;73;21186;-76
2021/07/16 09:23:18;;;;;;;46.58;8.40;;;21.80;99.90;;;;;;1933126;73;21089;-77
2021/07/16 09:25:47;;;;;;;42.48;8.48;;;21.80;99.90;;;;;;1921940;73;21580;-77
2021/07/16 09:28:27;;;;;;;47.75;8.30;;;21.90;99.90;;;;;;1917477;74;21073;-77
2021/07/16 09:31:10;;;;;;;42.48;8.08;;;21.80;99.90;;;;;;1920681;74;21555;-76
2021/07/16 09:33:52;;;;;;;50.67;9.68;;;21.90;99.90;;;;;;1924092;74;21066;-76
2021/07/16 09:36:34;;;;;;;47.43;8.48;;;22.00;99.90;;;;;;1926546;74;21081;-77
2021/07/16 09:39:09;;;;;;;43.73;9.13;;;22.10;99.90;;;;;;1922254;73;21135;-77
2021/07/16 09:41:57;;;;;;;46.13;9.40;;;22.20;99.90;;;;;;1934903;73;21549;-82
2021/07/16 09:44:35;;;;;;;41.60;8.93;;;22.20;99.90;;;;;;1925788;73;21704;-75
2021/07/16 09:47:08;;;;;;;46.28;8.83;;;22.30;99.90;;;;;;1925583;73;21127;-77
2021/07/16 09:49:36;;;;;;;44.85;9.05;;;22.10;99.90;;;;;;1865680;76;21031;-73
2021/07/16 09:52:13;;;;;;;46.15;8.30;;;22.00;99.90;;;;;;1925391;73;21010;-74
2021/07/16 09:54:52;;;;;;;42.30;8.15;;;22.00;99.90;;;;;;1931478;73;21021;-72
2021/07/16 09:57:38;;;;;;;43.13;8.03;;;22.10;99.90;;;;;;1822567;76;21149;-75
2021/07/16 10:00:14;;;;;;;38.58;7.83;;;22.20;99.90;;;;;;1852091;76;21034;-71
2021/07/16 10:02:50;;;;;;;43.23;8.93;;;22.20;99.90;;;;;;1924882;73;21592;-73
2021/07/16 10:05:19;;;;;;;42.50;8.35;;;22.20;99.90;;;;;;1923671;73;21610;-83
2021/07/16 10:07:47;;;;;;;42.00;7.90;;;22.20;99.90;;;;;;1923292;73;21199;-75
2021/07/16 10:10:20;;;;;;;49.85;9.68;;;22.20;99.90;;;;;;1925400;73;21030;-72
2021/07/16 10:12:49;;;;;;;45.63;8.58;;;22.20;99.90;;;;;;1930148;73;21161;-74
2021/07/16 10:15:23;;;;;;;42.27;8.18;;;22.30;99.90;;;;;;1876741;75;21153;-75
2021/07/16 10:17:50;;;;;;;35.13;7.62;;;22.30;99.90;;;;;;1925152;73;21133;-73
2021/07/16 10:20:19;;;;;;;39.27;7.53;;;22.30;99.90;;;;;;1920043;73;21088;-76
2021/07/16 10:22:50;;;;;;;36.63;7.70;;;22.50;99.90;;;;;;1930701;73;21097;-70
2021/07/16 10:25:19;;;;;;;39.65;8.73;;;22.50;99.90;;;;;;1926028;73;21022;-71
2021/07/16 10:27:47;;;;;;;39.38;8.60;;;22.50;99.90;;;;;;1927280;73;21211;-75
2021/07/16 10:30:18;;;;;;;35.63;8.33;;;22.50;99.90;;;;;;1921676;73;21267;-75
2021/07/16 10:32:50;;;;;;;40.40;8.20;;;22.30;99.90;;;;;;1920778;73;21089;-75
2021/07/16 10:35:30;;;;;;;42.27;8.65;;;22.30;99.90;;;;;;1921380;73;21077;-75
2021/07/16 10:38:00;;;;;;;46.10;8.85;;;22.40;99.90;;;;;;1921234;73;21689;-74
2021/07/16 10:40:37;;;;;;;40.30;8.48;;;22.40;99.90;;;;;;1846777;76;21063;-74
2021/07/16 10:43:05;;;;;;;36.48;8.23;;;22.50;99.90;;;;;;1925059;73;21164;-74
2021/07/16 10:45:36;;;;;;;33.98;7.72;;;22.60;99.90;;;;;;1922395;74;21209;-74
2021/07/16 10:48:18;;;;;;;34.92;7.53;;;22.50;99.90;;;;;;1933489;73;21094;-75
2021/07/16 10:50:46;;;;;;;;;;;22.60;99.90;;;;;;1928992;73;21041;-74
2021/07/16 10:53:20;;;;;;;37.23;8.10;;;22.50;99.90;;;;;;1926492;73;20106;-74
2021/07/16 10:55:50;;;;;;;38.00;9.05;;;22.60;99.90;;;;;;1919154;73;21076;-75
2021/07/16 10:58:25;;;;;;;41.25;8.45;;;22.50;99.90;;;;;;1863050;76;21156;-74
2021/07/16 11:00:54;;;;;;;40.20;8.60;;;22.50;99.90;;;;;;1920447;74;21088;-74
2021/07/16 11:03:24;;;;;;;33.65;8.18;;;22.40;99.90;;;;;;1843452;76;21677;-74
2021/07/16 11:05:53;;;;;;;37.45;8.83;;;22.50;99.90;;;;;;1939285;73;21077;-75
2021/07/16 11:08:29;;;;;;;39.65;7.92;;;22.60;99.90;;;;;;1926776;73;21540;-75
2021/07/16 11:11:12;;;;;;;34.75;7.97;;;22.70;99.90;;;;;;1936672;73;21740;-76
2021/07/16 11:13:51;;;;;;;32.78;7.80;;;22.90;99.90;;;;;;1925912;73;21723;-74
2021/07/16 11:16:27;;;;;;;33.48;7.42;;;23.00;99.90;;;;;;1935702;73;21099;-74
2021/07/16 11:18:56;;;;;;;39.33;8.00;;;23.10;99.90;;;;;;1930572;73;21166;-75
2021/07/16 11:21:42;;;;;;;31.80;7.72;;;23.20;99.90;;;;;;1933218;73;21677;-74
2021/07/16 11:24:32;;;;;;;34.63;7.83;;;23.00;99.90;;;;;;1924691;73;21203;-75
2021/07/16 11:26:58;;;;;;;31.50;7.17;;;23.20;99.90;;;;;;1918316;73;21137;-74
2021/07/16 11:29:34;;;;;;;29.80;7.78;;;23.30;99.90;;;;;;1931463;73;21089;-75
2021/07/16 11:32:11;;;;;;;41.02;8.08;;;23.30;99.90;;;;;;1927969;73;21089;-74
2021/07/16 11:34:51;;;;;;;35.83;8.05;;;23.50;99.90;;;;;;1929833;73;21129;-76
2021/07/16 11:37:36;;;;;;;37.85;7.47;;;23.50;99.90;;;;;;1859194;76;21175;-76
2021/07/16 11:40:09;;;;;;;33.78;7.22;;;23.50;99.90;;;;;;1866414;76;21096;-75
2021/07/16 11:42:41;;;;;;;33.67;8.23;;;23.50;99.90;;;;;;1928823;73;21136;-74
2021/07/16 11:45:13;;;;;;;44.35;8.90;;;23.50;99.90;;;;;;1925303;73;21124;-74
2021/07/16 11:47:41;;;;;;;37.10;7.12;;;23.50;99.90;;;;;;1930881;73;21199;-77
2021/07/16 11:50:11;;;;;;;37.15;8.28;;;23.60;99.90;;;;;;1936997;73;21625;-76
2021/07/16 11:52:41;;;;;;;34.23;7.25;;;23.70;99.90;;;;;;1927243;73;21617;-76
2021/07/16 11:55:14;;;;;;;36.83;7.72;;;23.70;99.90;;;;;;1885310;75;21733;-77
2021/07/16 11:57:59;;;;;;;30.43;7.00;;;23.90;99.90;;;;;;1927376;73;21130;-76
2021/07/16 12:00:30;;;;;;;41.10;9.40;;;24.00;99.90;;;;;;1925626;73;21082;-77
2021/07/16 12:03:09;;;;;;;44.83;7.70;;;24.00;99.90;;;;;;1923542;73;21178;-77
2021/07/16 12:05:48;;;;;;;35.25;7.03;;;24.00;99.90;;;;;;1869536;75;21082;-76
2021/07/16 12:08:25;;;;;;;59.40;10.50;;;23.90;99.90;;;;;;1827254;76;21207;-76
2021/07/16 12:11:04;;;;;;;43.60;8.45;;;24.10;99.90;;;;;;1928017;73;21162;-72
2021/07/16 12:13:32;;;;;;;37.95;7.95;;;24.20;99.90;;;;;;1920569;73;21173;-73
2021/07/16 12:16:02;;;;;;;37.53;8.35;;;24.50;99.90;;;;;;1933256;73;21082;-71
2021/07/16 12:18:31;;;;;;;33.45;8.45;;;24.50;99.90;;;;;;1885321;75;21126;-70
2021/07/16 12:21:07;;;;;;;38.63;8.20;;;24.50;99.90;;;;;;1928693;73;21519;-70
2021/07/16 12:23:36;;;;;;;76.22;11.63;;;24.50;99.90;;;;;;1927265;73;21117;-75
2021/07/16 12:26:18;;;;;;;33.50;7.10;;;24.50;99.90;;;;;;1925197;73;22144;-68
2021/07/16 12:28:47;;;;;;;36.28;7.83;;;24.50;99.90;;;;;;1902945;73;21165;-68
2021/07/16 12:31:22;;;;;;;33.40;7.92;;;24.60;99.90;;;;;;1927094;73;21160;-73
2021/07/16 12:33:51;;;;;;;38.40;8.25;;;24.50;99.90;;;;;;1931269;73;21231;-71
2021/07/16 12:36:27;;;;;;;35.90;9.05;;;24.60;99.90;;;;;;1921046;73;21062;-73
2021/07/16 12:39:00;;;;;;;59.75;15.03;;;24.60;99.90;;;;;;1938894;73;21227;-73
2021/07/16 12:41:29;;;;;;;50.45;8.53;;;24.70;99.90;;;;;;1926389;73;21164;-71
2021/07/16 12:43:56;;;;;;;31.12;7.37;;;24.60;99.90;;;;;;1925082;73;21097;-69
2021/07/16 12:46:28;;;;;;;45.08;9.10;;;24.60;99.90;;;;;;1875302;76;21639;-69
2021/07/16 12:48:57;;;;;;;;;;;24.50;99.90;;;;;;1923928;74;21191;-69
2021/07/16 12:51:26;;;;;;;33.33;7.58;;;24.50;99.90;;;;;;1921458;73;20471;-70